createdAt,value
2018-08-10T00:00:20.524Z,20.40
2018-08-10T00:02:49.096Z,20.50
2018-08-10T00:05:17.667Z,20.50
2018-08-10T00:07:46.231Z,20.50
2018-08-10T00:10:15.072Z,20.50
2018-08-10T00:12:43.703Z,20.50
2018-08-10T00:15:13.092Z,20.50
2018-08-10T00:17:42.027Z,20.50
2018-08-10T00:20:12.927Z,20.40
2018-08-10T00:22:41.777Z,20.40
2018-08-10T00:25:12.297Z,20.40
2018-08-10T00:27:41.411Z,20.30
2018-08-10T00:30:12.786Z,20.30
2018-08-10T00:32:42.568Z,20.30
2018-08-10T00:35:11.259Z,20.20
2018-08-10T00:37:40.599Z,20.20
2018-08-10T00:40:13.484Z,20.10
2018-08-10T00:42:42.568Z,20.10
2018-08-10T00:45:12.440Z,20.10
2018-08-10T00:47:41.313Z,20.10
2018-08-10T00:50:11.365Z,20.10
2018-08-10T00:52:40.071Z,20.10
2018-08-10T00:55:10.907Z,20.10
2018-08-10T00:57:40.478Z,20.10
2018-08-10T01:00:11.446Z,20.00
2018-08-10T01:02:40.310Z,20.00
2018-08-10T01:05:09.820Z,19.90
2018-08-10T01:07:38.628Z,19.90
2018-08-10T01:10:10.563Z,19.80
2018-08-10T01:12:39.827Z,19.80
2018-08-10T01:15:10.406Z,19.70
2018-08-10T01:17:39.526Z,19.70
2018-08-10T01:20:12.107Z,19.70
2018-08-10T01:22:44.619Z,19.70
2018-08-10T01:25:13.654Z,19.60
2018-08-10T01:27:47.295Z,19.60
2018-08-10T01:30:15.837Z,19.50
2018-08-10T01:32:44.400Z,19.40
2018-08-10T01:35:13.028Z,19.40
2018-08-10T01:37:41.595Z,19.30
2018-08-10T01:40:10.150Z,19.20
2018-08-10T01:42:38.746Z,19.20
2018-08-10T01:45:08.567Z,19.00
2018-08-10T01:47:37.088Z,19.00
2018-08-10T01:50:06.441Z,19.00
2018-08-10T01:52:34.997Z,19.00
2018-08-10T01:55:04.394Z,19.00
2018-08-10T01:57:33.009Z,19.00
2018-08-10T02:00:01.794Z,18.90
2018-08-10T02:02:30.427Z,18.90
2018-08-10T02:04:59.109Z,18.90
2018-08-10T02:07:27.655Z,18.70
2018-08-10T02:09:56.219Z,18.70
2018-08-10T02:12:24.798Z,18.60
2018-08-10T02:14:53.353Z,18.50
2018-08-10T02:17:21.915Z,18.50
2018-08-10T02:19:50.487Z,18.40
2018-08-10T02:22:19.032Z,18.30
2018-08-10T02:24:47.605Z,18.20
2018-08-10T02:27:16.162Z,18.10
2018-08-10T02:29:44.826Z,18.10
2018-08-10T02:32:13.388Z,18.00
2018-08-10T02:34:41.966Z,18.00
2018-08-10T02:37:10.507Z,18.00
2018-08-10T02:39:39.303Z,17.90
2018-08-10T02:42:07.899Z,17.90
2018-08-10T02:44:36.490Z,17.90
2018-08-10T02:47:05.055Z,17.90
2018-08-10T02:49:33.614Z,17.90
2018-08-10T02:52:02.198Z,17.90
2018-08-10T02:54:30.766Z,17.80
2018-08-10T02:56:59.387Z,17.80
2018-08-10T02:59:27.940Z,17.80
2018-08-10T03:01:56.509Z,17.80
2018-08-10T03:04:25.095Z,17.80
2018-08-10T03:06:53.652Z,17.80
2018-08-10T03:09:22.175Z,17.90
2018-08-10T03:11:51.047Z,17.90
2018-08-10T03:14:19.595Z,17.90
2018-08-10T03:16:48.154Z,17.90
2018-08-10T03:19:16.767Z,17.90
2018-08-10T03:21:45.320Z,17.90
2018-08-10T03:24:13.882Z,17.90
2018-08-10T03:26:42.498Z,17.90
2018-08-10T03:29:11.329Z,17.90
2018-08-10T03:31:39.894Z,17.90
2018-08-10T03:34:08.449Z,17.90
2018-08-10T03:36:37.058Z,17.90
2018-08-10T03:39:08.224Z,17.90
2018-08-10T03:41:36.843Z,17.90
2018-08-10T03:44:05.704Z,17.90
2018-08-10T03:46:34.349Z,17.80
2018-08-10T03:49:02.999Z,17.80
2018-08-10T03:51:31.568Z,17.80
2018-08-10T03:54:00.195Z,17.80
2018-08-10T03:56:28.850Z,17.80
2018-08-10T03:58:57.378Z,17.80
2018-08-10T04:01:26.032Z,17.80
2018-08-10T04:03:54.618Z,17.80
2018-08-10T04:06:23.156Z,17.70
2018-08-10T04:08:51.749Z,17.70
2018-08-10T04:11:20.383Z,17.60
2018-08-10T04:13:48.946Z,17.60
2018-08-10T04:16:17.577Z,17.60
2018-08-10T04:18:46.134Z,17.60
2018-08-10T04:21:14.732Z,17.50
2018-08-10T04:23:43.279Z,17.40
2018-08-10T04:26:11.879Z,17.40
2018-08-10T04:28:40.422Z,17.30
2018-08-10T04:31:09.039Z,17.30
2018-08-10T04:33:37.614Z,17.30
2018-08-10T04:36:06.187Z,17.30
2018-08-10T04:38:34.850Z,17.30
2018-08-10T04:41:03.330Z,17.30
2018-08-10T04:43:31.905Z,17.30
2018-08-10T04:46:00.500Z,17.40
2018-08-10T04:48:29.050Z,17.40
2018-08-10T04:50:57.637Z,17.40
2018-08-10T04:53:26.211Z,17.30
2018-08-10T04:55:54.778Z,17.30
2018-08-10T04:58:23.350Z,17.20
2018-08-10T05:00:51.925Z,17.20
2018-08-10T05:03:20.510Z,17.10
2018-08-10T05:05:49.036Z,17.10
2018-08-10T05:08:17.592Z,17.20
2018-08-10T05:10:46.175Z,17.20
2018-08-10T05:13:14.744Z,17.20
2018-08-10T05:15:43.367Z,17.20
2018-08-10T05:18:12.034Z,17.20
2018-08-10T05:20:40.606Z,17.30
2018-08-10T05:23:09.236Z,17.40
2018-08-10T05:25:37.777Z,17.40
2018-08-10T05:28:06.590Z,17.50
2018-08-10T05:30:35.216Z,17.60
2018-08-10T05:33:03.854Z,17.50
2018-08-10T05:35:32.423Z,17.50
2018-08-10T05:38:00.994Z,17.50
2018-08-10T05:40:29.570Z,17.50
2018-08-10T05:42:58.167Z,17.60
2018-08-10T05:45:26.777Z,17.80
2018-08-10T05:47:55.400Z,18.30
2018-08-10T05:50:23.939Z,19.50
2018-08-10T05:52:52.503Z,20.70
2018-08-10T05:55:21.059Z,20.80
2018-08-10T05:57:49.627Z,20.50
2018-08-10T06:00:18.209Z,19.90
2018-08-10T06:02:46.768Z,19.60
2018-08-10T06:05:15.379Z,19.60
2018-08-10T06:07:43.952Z,20.70
2018-08-10T06:10:12.520Z,22.10
2018-08-10T06:12:41.051Z,23.00
2018-08-10T06:15:10.774Z,23.70
2018-08-10T06:17:39.635Z,23.60
2018-08-10T06:20:11.810Z,22.60
2018-08-10T06:22:40.362Z,23.00
2018-08-10T06:25:09.218Z,23.90
2018-08-10T06:27:37.897Z,24.10
2018-08-10T06:30:09.395Z,23.30
2018-08-10T06:32:37.995Z,22.50
2018-08-10T06:35:06.582Z,21.70
2018-08-10T06:37:35.378Z,21.20
2018-08-10T06:40:04.552Z,21.50
2018-08-10T06:42:33.089Z,22.40
2018-08-10T06:45:01.777Z,22.50
2018-08-10T06:47:30.204Z,22.60
2018-08-10T06:49:58.783Z,21.90
2018-08-10T06:52:27.360Z,21.20
2018-08-10T06:54:55.959Z,20.80
2018-08-10T06:57:24.555Z,21.00
2018-08-10T06:59:53.110Z,23.00
2018-08-10T07:02:21.711Z,25.30
2018-08-10T07:04:50.300Z,25.80
2018-08-10T07:07:18.913Z,25.10
2018-08-10T07:09:47.532Z,24.10
2018-08-10T07:12:16.139Z,23.70
2018-08-10T07:14:44.682Z,24.10
2018-08-10T07:17:13.364Z,25.00
2018-08-10T07:19:42.607Z,26.80
2018-08-10T07:22:11.191Z,29.30
2018-08-10T07:24:39.780Z,31.30
2018-08-10T07:27:08.359Z,32.10
2018-08-10T07:29:36.881Z,32.40
2018-08-10T07:32:05.533Z,33.30
2018-08-10T07:34:34.128Z,34.10
2018-08-10T07:37:02.719Z,34.70
2018-08-10T07:39:31.285Z,35.00
2018-08-10T07:41:59.870Z,35.40
2018-08-10T07:44:28.492Z,36.20
2018-08-10T07:46:57.111Z,36.80
2018-08-10T07:49:25.691Z,37.30
2018-08-10T07:51:54.238Z,37.70
2018-08-10T07:54:22.839Z,37.80
2018-08-10T07:56:51.439Z,38.20
2018-08-10T07:59:20.012Z,38.20
2018-08-10T08:01:48.622Z,38.90
2018-08-10T08:04:17.210Z,39.20
2018-08-10T08:06:45.802Z,39.40
2018-08-10T08:09:14.444Z,39.10
2018-08-10T08:11:43.379Z,39.60
2018-08-10T08:14:11.970Z,40.50
2018-08-10T08:16:40.623Z,41.10
2018-08-10T08:19:09.265Z,41.20
2018-08-10T08:21:37.876Z,41.50
2018-08-10T08:24:06.519Z,41.70
2018-08-10T08:26:35.144Z,41.90
2018-08-10T08:29:03.816Z,41.40
2018-08-10T08:31:32.555Z,41.70
2018-08-10T08:34:07.740Z,42.40
2018-08-10T08:36:36.633Z,42.50
2018-08-10T08:40:34.154Z,43.00
2018-08-10T08:43:02.814Z,43.40
2018-08-10T08:46:24.262Z,42.20
2018-08-10T08:48:53.138Z,41.30
2018-08-10T08:51:26.695Z,41.50
2018-08-10T08:54:06.355Z,42.60
2018-08-10T08:56:49.796Z,43.30
2018-08-10T08:59:18.385Z,44.00
2018-08-10T09:01:46.974Z,44.30
2018-08-10T09:04:38.316Z,43.90
2018-08-10T09:07:06.957Z,44.10
2018-08-10T09:09:39.197Z,44.10
2018-08-10T09:12:07.817Z,43.40
2018-08-10T09:14:43.438Z,42.00
2018-08-10T09:17:12.164Z,42.00
2018-08-10T09:19:41.698Z,39.90
2018-08-10T09:22:12.967Z,38.50
2018-08-10T09:24:42.137Z,36.20
2018-08-10T09:27:10.744Z,36.40
2018-08-10T09:29:39.569Z,38.70
2018-08-10T09:32:08.183Z,41.10
2018-08-10T09:34:36.755Z,42.70
2018-08-10T09:37:06.042Z,43.80
2018-08-10T09:39:34.675Z,44.00
2018-08-10T09:42:03.900Z,44.30
2018-08-10T09:44:33.063Z,42.10
2018-08-10T09:47:02.296Z,37.00
2018-08-10T09:49:33.028Z,33.20
2018-08-10T09:52:01.720Z,32.30
2018-08-10T09:54:30.343Z,35.90
2018-08-10T09:57:03.048Z,37.90
2018-08-10T09:59:31.958Z,38.20
2018-08-10T10:02:05.920Z,38.60
2018-08-10T10:04:34.514Z,39.70
2018-08-10T10:07:03.109Z,38.20
2018-08-10T10:09:32.015Z,38.30
2018-08-10T10:12:00.699Z,39.60
2018-08-10T10:14:29.331Z,39.20
2018-08-10T10:16:57.960Z,38.20
2018-08-10T10:19:26.542Z,38.60
2018-08-10T10:21:55.145Z,39.20
2018-08-10T10:24:23.737Z,38.70
2018-08-10T10:26:52.278Z,37.50
2018-08-10T10:29:20.824Z,35.80
2018-08-10T10:31:49.503Z,34.50
2018-08-10T10:34:18.058Z,32.60
2018-08-10T10:36:46.599Z,31.20
2018-08-10T10:39:15.258Z,30.40
2018-08-10T10:41:43.791Z,29.90
2018-08-10T10:44:12.332Z,29.70
2018-08-10T10:46:40.923Z,30.00
2018-08-10T10:49:09.479Z,30.00
2018-08-10T10:51:38.020Z,29.80
2018-08-10T10:54:06.574Z,29.70
2018-08-10T10:56:35.220Z,29.80
2018-08-10T10:59:03.895Z,29.70
2018-08-10T11:01:32.517Z,28.90
2018-08-10T11:04:01.087Z,28.50
2018-08-10T11:06:29.744Z,28.90
2018-08-10T11:08:58.352Z,28.90
2018-08-10T11:11:26.899Z,28.60
2018-08-10T11:13:55.470Z,29.10
2018-08-10T11:16:24.096Z,29.60
2018-08-10T11:18:52.633Z,29.90
2018-08-10T11:21:21.201Z,29.60
2018-08-10T11:23:49.760Z,29.40
2018-08-10T11:26:18.319Z,29.30
2018-08-10T11:28:46.858Z,29.40
2018-08-10T11:31:15.469Z,29.00
2018-08-10T11:33:43.998Z,28.20
2018-08-10T11:36:12.538Z,28.60
2018-08-10T11:38:41.106Z,29.30
2018-08-10T11:41:09.738Z,30.00
2018-08-10T11:43:38.306Z,30.00
2018-08-10T11:46:07.157Z,30.00
2018-08-10T11:48:35.726Z,29.90
2018-08-10T11:51:04.372Z,29.40
2018-08-10T11:53:32.972Z,29.60
2018-08-10T11:56:01.564Z,29.30
2018-08-10T11:58:30.092Z,29.00
2018-08-10T12:02:01.720Z,28.40
2018-08-10T12:04:30.223Z,28.10
2018-08-10T12:06:58.791Z,27.70
2018-08-10T12:09:27.364Z,27.00
2018-08-10T12:11:55.909Z,26.80
2018-08-10T12:14:24.457Z,27.20
2018-08-10T12:16:53.071Z,27.40
2018-08-10T12:19:21.602Z,27.80
2018-08-10T12:21:50.169Z,27.90
2018-08-10T12:24:25.474Z,27.70
2018-08-10T12:26:54.197Z,27.30
2018-08-10T12:29:22.782Z,27.20
2018-08-10T12:31:51.392Z,27.00
2018-08-10T12:34:20.005Z,26.80
2018-08-10T12:36:48.544Z,26.80
2018-08-10T12:39:17.170Z,26.50
2018-08-10T12:41:45.739Z,26.80
2018-08-10T12:44:14.314Z,27.80
2018-08-10T12:46:42.939Z,28.30
2018-08-10T12:49:11.534Z,28.90
2018-08-10T12:51:40.144Z,29.10
2018-08-10T12:54:08.739Z,29.20
2018-08-10T12:56:37.356Z,29.00
2018-08-10T12:59:05.925Z,28.60
2018-08-10T13:01:34.544Z,28.40
2018-08-10T13:04:03.152Z,28.40
2018-08-10T13:06:31.767Z,28.60
2018-08-10T13:09:00.335Z,28.60
2018-08-10T13:11:28.906Z,28.40
2018-08-10T13:13:57.476Z,28.50
2018-08-10T13:16:26.024Z,28.30
2018-08-10T13:18:54.574Z,28.30
2018-08-10T13:21:23.099Z,28.50
2018-08-10T13:23:51.710Z,28.80
2018-08-10T13:26:20.311Z,28.90
2018-08-10T13:28:48.847Z,29.00
2018-08-10T13:31:17.451Z,29.20
2018-08-10T13:33:46.051Z,29.40
2018-08-10T13:36:14.651Z,28.70
2018-08-10T13:38:43.287Z,28.30
2018-08-10T13:41:11.910Z,28.60
2018-08-10T13:43:46.959Z,29.60
2018-08-10T13:46:15.702Z,29.80
2018-08-10T13:48:44.318Z,29.40
2018-08-10T13:51:12.911Z,29.20
2018-08-10T13:53:41.462Z,29.80
2018-08-10T13:56:09.989Z,30.20
2018-08-10T13:58:38.698Z,30.50
2018-08-10T14:01:07.297Z,30.50
2018-08-10T14:03:36.538Z,30.70
2018-08-10T14:06:05.231Z,30.50
2018-08-10T14:08:33.778Z,30.60
2018-08-10T14:11:02.413Z,30.40
2018-08-10T14:13:30.999Z,29.60
2018-08-10T14:15:59.630Z,28.90
2018-08-10T14:18:28.198Z,28.70
2018-08-10T14:20:56.780Z,29.10
2018-08-10T14:23:25.343Z,29.30
2018-08-10T14:25:53.941Z,29.50
2018-08-10T14:28:22.565Z,29.80
2018-08-10T14:30:51.130Z,29.50
2018-08-10T14:33:19.771Z,29.00
2018-08-10T14:35:48.447Z,28.80
2018-08-10T14:38:17.007Z,28.70
2018-08-10T14:40:45.565Z,28.80
2018-08-10T14:43:14.182Z,28.60
2018-08-10T14:45:42.782Z,28.40
2018-08-10T14:48:11.351Z,28.30
2018-08-10T14:50:39.975Z,28.30
2018-08-10T14:53:08.555Z,28.00
2018-08-10T14:55:37.149Z,28.00
2018-08-10T14:58:05.886Z,28.20
2018-08-10T15:00:34.537Z,28.50
2018-08-10T15:03:03.159Z,28.50
2018-08-10T15:05:31.732Z,28.50
2018-08-10T15:08:00.276Z,28.60
2018-08-10T15:10:29.191Z,28.40
2018-08-10T15:12:57.956Z,28.00
2018-08-10T15:15:26.385Z,27.80
2018-08-10T15:17:54.995Z,28.10
2018-08-10T15:20:23.597Z,28.10
2018-08-10T15:22:52.114Z,28.40
2018-08-10T15:25:20.707Z,28.50
2018-08-10T15:27:49.318Z,28.50
2018-08-10T15:30:18.775Z,28.40
2018-08-10T15:32:47.375Z,28.40
2018-08-10T15:35:17.079Z,28.40
2018-08-10T15:37:46.254Z,28.10
2018-08-10T15:40:16.687Z,28.10
2018-08-10T15:42:45.604Z,27.70
2018-08-10T15:45:15.378Z,27.70
2018-08-10T15:47:44.562Z,27.50
2018-08-10T15:50:13.271Z,27.50
2018-08-10T15:52:43.085Z,27.30
2018-08-10T15:55:12.039Z,27.10
2018-08-10T15:57:41.082Z,27.10
2018-08-10T16:00:12.055Z,26.90
2018-08-10T16:02:40.701Z,26.50
2018-08-10T16:05:10.391Z,26.20
2018-08-10T16:07:39.559Z,26.20
2018-08-10T16:10:08.694Z,26.20
2018-08-10T16:12:37.902Z,26.30
2018-08-10T16:15:08.859Z,26.20
2018-08-10T16:17:37.809Z,26.10
2018-08-10T16:20:07.632Z,26.00
2018-08-10T16:22:36.394Z,26.10
2018-08-10T16:25:06.572Z,26.30
2018-08-10T16:27:35.169Z,26.30
2018-08-10T16:30:03.851Z,26.30
2018-08-10T16:32:32.399Z,26.40
2018-08-10T16:35:00.967Z,26.40
2018-08-10T16:37:29.586Z,26.40
2018-08-10T16:39:58.157Z,26.20
2018-08-10T16:42:26.739Z,26.10
2018-08-10T16:44:55.338Z,25.90
2018-08-10T16:47:23.944Z,25.90
2018-08-10T16:49:52.515Z,25.80
2018-08-10T16:52:21.176Z,25.80
2018-08-10T16:54:49.810Z,25.70
2018-08-10T16:57:18.418Z,25.60
2018-08-10T16:59:47.034Z,25.50
2018-08-10T17:02:15.587Z,25.30
2018-08-10T17:04:44.182Z,25.20
2018-08-10T17:07:12.774Z,25.00
2018-08-10T17:09:41.322Z,25.00
2018-08-10T17:12:10.144Z,24.80
2018-08-10T17:14:38.785Z,24.70
2018-08-10T17:17:07.377Z,24.70
2018-08-10T17:19:35.951Z,24.60
2018-08-10T17:22:04.638Z,24.60
2018-08-10T17:24:33.222Z,24.60
2018-08-10T17:27:01.818Z,24.50
2018-08-10T17:29:30.427Z,24.40
2018-08-10T17:31:58.990Z,24.30
2018-08-10T17:34:27.605Z,24.30
2018-08-10T17:36:56.214Z,24.20
2018-08-10T17:39:24.827Z,24.20
2018-08-10T17:41:53.409Z,24.20
2018-08-10T17:44:21.986Z,24.10
2018-08-10T17:46:50.583Z,24.10
2018-08-10T17:49:19.127Z,23.90
2018-08-10T17:51:47.703Z,23.90
2018-08-10T17:54:16.386Z,23.80
2018-08-10T17:56:44.949Z,23.70
2018-08-10T17:59:13.633Z,23.60
2018-08-10T18:01:42.170Z,23.50
2018-08-10T18:04:10.739Z,23.40
2018-08-10T18:06:39.389Z,23.30
2018-08-10T18:09:09.708Z,23.20
2018-08-10T18:11:38.722Z,23.10
2018-08-10T18:14:08.105Z,23.00
2018-08-10T18:16:36.714Z,22.90
2018-08-10T18:19:05.388Z,22.70
2018-08-10T18:21:34.389Z,22.60
2018-08-10T18:24:03.016Z,22.40
2018-08-10T18:26:31.605Z,22.30
2018-08-10T18:29:00.209Z,22.20
2018-08-10T18:31:28.826Z,22.10
2018-08-10T18:33:57.422Z,21.90
2018-08-10T18:36:26.013Z,21.80
2018-08-10T18:38:54.636Z,21.70
2018-08-10T18:41:23.263Z,21.60
2018-08-10T18:43:51.808Z,21.50
2018-08-10T18:46:20.367Z,21.50
2018-08-10T18:48:49.000Z,21.30
2018-08-10T18:51:17.584Z,21.20
2018-08-10T18:53:46.167Z,21.20
2018-08-10T18:56:14.706Z,21.10
2018-08-10T18:58:43.334Z,21.10
2018-08-10T19:01:11.914Z,21.00
2018-08-10T19:03:40.506Z,20.90
2018-08-10T19:06:09.066Z,20.90
2018-08-10T19:08:37.631Z,20.80
2018-08-10T19:11:06.371Z,20.80
2018-08-10T19:13:34.933Z,20.70
2018-08-10T19:16:03.575Z,20.60
2018-08-10T19:18:32.196Z,20.50
2018-08-10T19:21:00.817Z,20.40
2018-08-10T19:23:29.378Z,20.30
2018-08-10T19:25:57.968Z,20.20
2018-08-10T19:28:26.587Z,20.10
2018-08-10T19:30:55.171Z,20.10
2018-08-10T19:33:23.770Z,20.00
2018-08-10T19:35:52.329Z,19.90
2018-08-10T19:38:20.922Z,19.80
2018-08-10T19:40:49.556Z,19.60
2018-08-10T19:43:18.102Z,19.50
2018-08-10T19:45:46.688Z,19.50
2018-08-10T19:48:15.321Z,19.50
2018-08-10T19:50:43.954Z,19.40
2018-08-10T19:53:13.398Z,19.40
2018-08-10T19:55:42.025Z,19.40
2018-08-10T19:58:10.599Z,19.30
2018-08-10T20:00:39.196Z,19.00
2018-08-10T20:03:07.824Z,18.80
2018-08-10T20:05:36.386Z,18.70
2018-08-10T20:08:04.988Z,18.60
2018-08-10T20:10:34.539Z,18.50
2018-08-10T20:13:03.146Z,18.50
2018-08-10T20:15:31.803Z,18.50
2018-08-10T20:18:00.403Z,18.50
2018-08-10T20:20:29.031Z,18.50
2018-08-10T20:22:57.660Z,18.40
2018-08-10T20:25:26.239Z,18.40
2018-08-10T20:27:54.863Z,18.40
2018-08-10T20:30:23.504Z,18.30
2018-08-10T20:32:52.205Z,18.40
2018-08-10T20:35:21.066Z,18.40
2018-08-10T20:37:50.165Z,18.40
2018-08-10T20:40:19.798Z,18.40
2018-08-10T20:42:48.802Z,18.40
2018-08-10T20:45:18.615Z,18.30
2018-08-10T20:47:47.192Z,18.20
2018-08-10T20:50:19.850Z,18.20
2018-08-10T20:52:48.518Z,18.20
2018-08-10T20:55:17.078Z,18.20
2018-08-10T20:57:46.000Z,18.20
2018-08-10T21:00:14.669Z,18.30
2018-08-10T21:02:44.344Z,18.20
2018-08-10T21:05:13.411Z,18.10
2018-08-10T21:07:42.074Z,18.10
2018-08-10T21:10:12.504Z,18.00
2018-08-10T21:12:42.033Z,18.00
2018-08-10T21:15:12.015Z,18.00
2018-08-10T21:17:41.507Z,18.00
2018-08-10T21:20:12.335Z,17.80
2018-08-10T21:22:40.990Z,17.70
2018-08-10T21:25:10.306Z,17.50
2018-08-10T21:27:39.450Z,17.40
2018-08-10T21:30:10.819Z,17.40
2018-08-10T21:32:39.470Z,17.40
2018-08-10T21:35:08.206Z,17.40
2018-08-10T21:37:36.815Z,17.40
2018-08-10T21:40:06.275Z,17.40
2018-08-10T21:42:34.881Z,17.40
2018-08-10T21:45:03.782Z,17.30
2018-08-10T21:47:32.367Z,17.20
2018-08-10T21:50:00.886Z,17.10
2018-08-10T21:52:29.458Z,17.00
2018-08-10T21:54:58.070Z,16.80
2018-08-10T21:57:26.682Z,16.80
2018-08-10T21:59:55.265Z,16.90
2018-08-10T22:02:25.133Z,16.90
2018-08-10T22:04:54.114Z,16.80
2018-08-10T22:07:22.741Z,16.80
2018-08-10T22:09:51.288Z,16.80
2018-08-10T22:12:20.495Z,16.80
2018-08-10T22:14:54.458Z,16.70
2018-08-10T22:19:35.823Z,16.70
2018-08-10T22:22:04.416Z,16.70
2018-08-10T22:24:33.066Z,16.50
2018-08-10T22:27:01.682Z,16.50
2018-08-10T22:29:30.283Z,16.50
2018-08-10T22:31:58.858Z,16.40
2018-08-10T22:34:27.406Z,16.40
2018-08-10T22:36:56.013Z,16.50
2018-08-10T22:39:24.582Z,16.50
2018-08-10T22:41:53.138Z,16.50
2018-08-10T22:44:21.786Z,16.40
2018-08-10T22:46:50.655Z,16.40
2018-08-10T22:49:19.370Z,16.50
2018-08-10T22:51:47.983Z,16.50
2018-08-10T22:54:16.542Z,16.50
2018-08-10T22:56:45.100Z,16.60
2018-08-10T22:59:13.751Z,16.60
2018-08-10T23:01:42.362Z,16.60
2018-08-10T23:04:10.923Z,16.50
2018-08-10T23:06:39.503Z,16.60
2018-08-10T23:09:09.747Z,16.60
2018-08-10T23:11:38.404Z,16.60
2018-08-10T23:14:07.088Z,16.60
2018-08-10T23:16:35.847Z,16.60
2018-08-10T23:19:04.428Z,16.60
2018-08-10T23:21:33.107Z,16.60
2018-08-10T23:24:01.735Z,16.60
2018-08-10T23:26:30.295Z,16.60
2018-08-10T23:28:58.929Z,16.60
2018-08-10T23:31:27.535Z,16.50
2018-08-10T23:33:56.097Z,16.50
2018-08-10T23:36:24.682Z,16.50
2018-08-10T23:38:53.250Z,16.50
2018-08-10T23:41:21.806Z,16.50
2018-08-10T23:43:50.421Z,16.50
2018-08-10T23:46:18.978Z,16.40
2018-08-10T23:48:47.539Z,16.40
2018-08-10T23:51:16.166Z,16.50
2018-08-10T23:53:44.786Z,16.40
2018-08-10T23:56:13.399Z,16.40
2018-08-10T23:58:42.024Z,16.40
